createdAt,value
2023-04-21T00:19:31.679Z,9.60
2023-04-21T00:44:23.886Z,9.80
2023-04-21T01:04:54.338Z,9.50
2023-04-21T01:30:35.935Z,9.10
2023-04-21T03:37:05.437Z,7.40
2023-04-21T04:07:33.652Z,7.80
2023-04-21T06:31:37.795Z,12.30
2023-04-21T07:02:15.838Z,13.80
2023-04-21T07:32:52.473Z,14.70
2023-04-21T07:57:40.330Z,15.80
2023-04-21T08:18:18.217Z,15.70
2023-04-21T08:38:50.642Z,15.90
2023-04-21T08:59:12.867Z,16.00
2023-04-21T09:24:20.617Z,16.30
2023-04-21T09:54:28.383Z,16.70
2023-04-21T10:19:51.505Z,16.90
2023-04-21T11:05:37.016Z,17.00
2023-04-21T11:45:48.617Z,17.60
2023-04-21T12:06:31.618Z,17.70
2023-04-21T13:01:51.924Z,18.70
2023-04-21T13:22:16.023Z,18.90
2023-04-21T13:52:36.662Z,20.10
2023-04-21T14:18:01.259Z,19.70
2023-04-21T14:48:18.679Z,23.00
2023-04-21T15:14:08.782Z,23.50
2023-04-21T15:44:47.071Z,19.00
2023-04-21T16:10:01.055Z,19.10
2023-04-21T16:34:58.510Z,18.00
2023-04-21T17:00:22.070Z,17.10
2023-04-21T17:25:39.042Z,16.30
2023-04-21T17:51:19.862Z,15.20
2023-04-21T18:16:40.513Z,13.70
2023-04-21T18:51:41.250Z,12.20
2023-04-21T19:17:28.440Z,11.00
2023-04-21T19:42:54.376Z,10.10
2023-04-21T20:12:54.814Z,9.50
2023-04-21T20:43:12.432Z,10.60
2023-04-21T21:13:35.026Z,10.60
2023-04-21T21:49:05.818Z,9.80
2023-04-21T23:00:42.256Z,7.50
2023-04-21T23:30:32.127Z,9.10
2023-04-21T23:51:01.156Z,9.50
